Airport View

Enter AWOS ICAO identifier for current METAR.

ex. KFNL

K4M9 120630Z AUTO 19006KT 10SM BKN016 01/M01 A3047 RMK AO2 PWINO

12 Dec 2019 06:30

Frequency: 118.325

Phone: 870-857-9702

Other Area AWOS: KARG - KPOF - KTKX - KMAW

TAF KJBR 120522Z 1206/1306 VRB03KT P6SM SKC FM121600 15007KT P6SM FEW250 FM130100 15003KT P6SM FEW250